Time;durP1;ratioP1;P1;durP2;ratioP2;P2;SDS_P1;SDS_P2;PMS_P1;PMS_P2;Temp;Humidity;BMP_temperature;BMP_pressure;BME280_temperature;BME280_humidity;BME280_pressure;Samples;Min_cycle;Max_cycle;Signal;HPM_P1;HPM_P2
2022/06/28 00:00:09;;;;;;;9.82;7.35;;;;;;;14.00;100.00;101855.16;2097331;28;20196;-67
2022/06/28 00:01:11;;;;;;;7.97;6.78;;;;;;;14.00;100.00;101860.53;2097477;28;30815;-67
2022/06/28 00:02:13;;;;;;;8.40;7.50;;;;;;;14.04;100.00;101862.22;2096787;28;26095;-67
2022/06/28 00:03:14;;;;;;;11.15;7.15;;;;;;;14.03;100.00;101857.78;2098529;28;22115;-66
2022/06/28 00:04:18;;;;;;;8.95;7.95;;;;;;;14.04;100.00;101854.16;2099035;28;22584;-66
2022/06/28 00:05:21;;;;;;;8.85;6.43;;;;;;;14.04;100.00;101855.97;2096593;28;30032;-66
2022/06/28 00:06:25;;;;;;;8.57;7.78;;;;;;;14.05;100.00;101855.03;2096924;28;23521;-67
2022/06/28 00:07:27;;;;;;;8.45;6.95;;;;;;;14.06;100.00;101860.38;2097897;28;21544;-66
2022/06/28 00:08:34;;;;;;;7.85;7.10;;;;;;;14.07;100.00;101853.22;2096620;28;30620;-67
2022/06/28 00:09:35;;;;;;;7.20;6.55;;;;;;;14.06;100.00;101862.19;2098130;28;22163;-67
2022/06/28 00:10:38;;;;;;;8.20;6.85;;;;;;;14.07;100.00;101859.47;2097836;28;20037;-66
2022/06/28 00:11:43;;;;;;;8.63;7.57;;;;;;;14.07;100.00;101856.78;2097238;28;32849;-66
2022/06/28 00:12:48;;;;;;;7.90;7.10;;;;;;;14.08;100.00;101868.44;2097155;28;23882;-67
2022/06/28 00:13:50;;;;;;;7.85;7.10;;;;;;;14.07;100.00;101862.16;2097534;28;28130;-67
2022/06/28 00:16:16;;;;;;;7.90;6.35;;;;;;;14.06;100.00;101859.50;2097395;28;31708;-67
2022/06/28 00:17:18;;;;;;;8.77;7.32;;;;;;;14.08;100.00;101858.53;2096938;28;40570;-66
2022/06/28 00:18:20;;;;;;;7.95;6.90;;;;;;;14.07;100.00;101855.91;2097932;28;20112;-67
2022/06/28 00:19:21;;;;;;;8.77;7.60;;;;;;;14.09;100.00;101856.75;2097327;28;27960;-67
2022/06/28 00:20:24;;;;;;;9.55;6.95;;;;;;;14.08;100.00;101860.34;2097804;28;25445;-68
2022/06/28 00:21:26;;;;;;;7.25;6.47;;;;;;;14.08;100.00;101852.28;2096641;28;36014;-67
2022/06/28 00:22:27;;;;;;;6.95;5.75;;;;;;;14.08;99.78;101853.16;2097729;28;28873;-68
2022/06/28 00:23:30;;;;;;;7.30;6.70;;;;;;;14.08;99.92;101853.16;2097731;28;20037;-67
2022/06/28 00:24:34;;;;;;;9.23;6.43;;;;;;;14.09;99.96;101860.31;2097623;28;22943;-67
2022/06/28 00:25:35;;;;;;;9.55;6.30;;;;;;;14.08;99.56;101857.66;2097656;28;20045;-68
2022/06/28 00:26:37;;;;;;;7.55;6.28;;;;;;;14.09;99.51;101865.69;2097631;28;20107;-67
2022/06/28 00:27:41;;;;;;;5.72;5.22;;;;;;;14.09;99.59;101854.94;2096284;28;33620;-67
2022/06/28 00:28:44;;;;;;;6.88;6.20;;;;;;;14.10;99.61;101855.81;2097686;28;20962;-68
2022/06/28 00:29:46;;;;;;;7.70;6.35;;;;;;;14.09;99.62;101864.81;2096508;28;20179;-67
2022/06/28 00:30:48;;;;;;;7.97;6.43;;;;;;;14.10;99.52;101856.72;2089031;28;20041;-67
2022/06/28 00:31:50;;;;;;;7.82;6.88;;;;;;;14.10;99.34;101858.50;2089040;28;20101;-68
2022/06/28 00:32:52;;;;;;;8.35;6.95;;;;;;;14.10;99.17;101861.19;2089205;28;20089;-67
2022/06/28 00:33:53;;;;;;;7.45;6.75;;;;;;;14.08;99.38;101863.91;2097085;28;21271;-68
2022/06/28 00:34:56;;;;;;;6.88;5.93;;;;;;;14.07;99.28;101864.84;2089279;28;33900;-68
2022/06/28 00:35:59;;;;;;;8.40;7.00;;;;;;;14.06;98.95;101862.19;2088858;28;20168;-68
2022/06/28 00:37:01;;;;;;;8.00;6.90;;;;;;;14.05;99.39;101868.50;2096410;28;20175;-68
2022/06/28 00:38:03;;;;;;;6.53;5.93;;;;;;;14.03;99.38;101870.34;2105151;28;20741;-68
2022/06/28 00:39:06;;;;;;;8.02;7.22;;;;;;;13.99;99.31;101861.44;2097390;28;31072;-66
2022/06/28 00:40:08;;;;;;;8.75;7.00;;;;;;;13.97;99.14;101870.47;2097280;28;27809;-67
2022/06/28 00:41:12;;;;;;;7.47;6.78;;;;;;;13.93;99.46;101861.59;2097065;28;22407;-68
2022/06/28 00:42:16;;;;;;;10.23;6.78;;;;;;;13.89;99.27;101867.94;2097319;28;20045;-67
2022/06/28 00:43:21;;;;;;;8.25;6.93;;;;;;;13.86;99.66;101868.91;2104793;28;20037;-67
2022/06/28 00:44:27;;;;;;;9.75;7.40;;;;;;;13.84;99.44;101878.81;2096861;28;20052;-67
2022/06/28 00:45:28;;;;;;;7.70;7.00;;;;;;;13.82;99.96;101869.00;2097861;28;22671;-67
2022/06/28 00:46:33;;;;;;;12.73;7.47;;;;;;;13.80;99.85;101882.50;2104695;28;20066;-68
2022/06/28 00:47:36;;;;;;;7.95;7.22;;;;;;;13.79;100.00;101877.16;2097762;28;20123;-67
2022/06/28 00:48:38;;;;;;;10.90;6.93;;;;;;;13.78;100.00;101880.75;2096845;28;20925;-67
2022/06/28 00:49:41;;;;;;;8.35;7.40;;;;;;;13.74;100.00;101886.19;2088381;28;24225;-66
2022/06/28 00:50:44;;;;;;;7.60;6.90;;;;;;;13.73;100.00;101883.56;2096179;28;38123;-67
2022/06/28 00:51:46;;;;;;;9.07;6.60;;;;;;;13.70;100.00;101886.31;2104666;28;34783;-67
2022/06/28 00:53:15;;;;;;;8.68;7.15;;;;;;;13.66;100.00;101885.47;2105403;28;20165;-67
2022/06/28 00:54:16;;;;;;;9.00;7.75;;;;;;;13.63;100.00;101888.22;2097702;28;20037;-67
2022/06/28 00:55:18;;;;;;;10.23;8.30;;;;;;;13.61;100.00;101890.06;2097881;28;20163;-67
2022/06/28 00:56:21;;;;;;;9.50;8.02;;;;;;;13.58;100.00;101890.13;2103321;28;26034;-68
2022/06/28 00:57:23;;;;;;;8.93;7.90;;;;;;;13.54;100.00;101888.41;2105418;28;20928;-67
2022/06/28 00:58:25;;;;;;;9.50;8.25;;;;;;;13.54;100.00;101899.19;2098152;28;20033;-68
2022/06/28 00:59:28;;;;;;;10.73;8.98;;;;;;;13.51;100.00;101899.22;2088125;28;20112;-67
2022/06/28 01:00:40;;;;;;;10.45;7.90;;;;;;;13.50;100.00;101897.47;2088337;28;20045;-67
2022/06/28 01:01:44;;;;;;;11.30;9.65;;;;;;;13.45;100.00;101902.06;2096551;28;20925;-67
2022/06/28 01:02:47;;;;;;;10.25;8.98;;;;;;;13.43;100.00;101896.69;2087954;28;20046;-68
2022/06/28 01:03:49;;;;;;;12.88;9.55;;;;;;;13.39;100.00;101905.75;2088922;28;20097;-68
2022/06/28 01:04:51;;;;;;;13.35;9.82;;;;;;;13.37;100.00;101902.22;2090924;28;20116;-68
2022/06/28 01:05:55;;;;;;;11.52;10.32;;;;;;;13.38;100.00;101905.78;2097095;28;20810;-68
2022/06/28 01:07:00;;;;;;;11.05;9.38;;;;;;;13.34;100.00;101907.66;2096500;28;20207;-68
2022/06/28 01:08:05;;;;;;;14.23;10.38;;;;;;;13.34;100.00;101902.25;2080550;28;20045;-68
2022/06/28 01:09:07;;;;;;;12.25;10.63;;;;;;;13.31;100.00;101905.88;2080202;28;20984;-66
2022/06/28 01:10:10;;;;;;;13.27;10.73;;;;;;;13.30;100.00;101906.78;2080978;28;20819;-67
2022/06/28 01:11:20;;;;;;;11.43;10.32;;;;;;;13.29;100.00;101910.38;2105014;28;20146;-68
2022/06/28 01:12:25;;;;;;;11.90;10.70;;;;;;;13.28;100.00;101911.31;2104046;28;21046;-67
2022/06/28 01:13:26;;;;;;;12.52;11.18;;;;;;;13.25;100.00;101914.03;2088343;28;20042;-67
2022/06/28 01:14:31;;;;;;;11.50;9.57;;;;;;;13.23;100.00;101920.38;2080298;28;20179;-68
2022/06/28 01:15:46;;;;;;;12.25;10.65;;;;;;;13.18;100.00;101917.75;2075622;28;20042;-67
2022/06/28 01:16:48;;;;;;;12.85;10.07;;;;;;;13.17;100.00;101921.34;2099458;28;20048;-67
2022/06/28 01:17:53;;;;;;;11.95;10.43;;;;;;;13.14;100.00;101921.44;2096585;28;20096;-68
2022/06/28 01:19:16;;;;;;;14.82;11.48;;;;;;;13.08;100.00;101921.53;2086336;28;20033;-67
2022/06/28 01:20:23;;;;;;;13.13;11.70;;;;;;;13.07;100.00;101926.03;2081138;28;20088;-67
2022/06/28 01:21:38;;;;;;;16.95;12.88;;;;;;;13.03;100.00;101928.78;2084590;28;20041;-68
2022/06/28 01:22:42;;;;;;;14.13;12.35;;;;;;;12.99;100.00;101934.22;2088504;28;20041;-65
2022/06/28 01:23:48;;;;;;;14.52;13.00;;;;;;;13.00;100.00;101935.09;2089312;28;20159;-67
2022/06/28 01:25:11;;;;;;;16.52;14.10;;;;;;;12.97;100.00;101932.47;2096182;28;20088;-67
2022/06/28 01:26:21;;;;;;;15.48;13.88;;;;;;;12.93;100.00;101939.69;2088161;28;20879;-68
2022/06/28 01:27:23;;;;;;;15.80;14.23;;;;;;;12.88;100.00;101938.88;2089944;28;20100;-68
2022/06/28 01:28:26;;;;;;;16.48;14.10;;;;;;;12.84;100.00;101938.97;2087466;28;20044;-67
2022/06/28 01:29:35;;;;;;;18.10;16.02;;;;;;;12.81;100.00;101934.50;2090574;28;20175;-68
2022/06/28 01:31:09;;;;;;;16.95;15.25;;;;;;;12.77;100.00;101938.16;2087635;28;20907;-67
2022/06/28 01:32:11;;;;;;;16.55;14.85;;;;;;;12.74;100.00;101941.81;2104666;28;20078;-67
2022/06/28 01:33:16;;;;;;;20.77;17.92;;;;;;;12.72;100.00;101938.25;2096809;28;20037;-68
2022/06/28 01:34:20;;;;;;;21.35;18.13;;;;;;;12.76;100.00;101944.47;2088065;28;20049;-68
2022/06/28 01:35:23;;;;;;;17.65;15.82;;;;;;;12.72;100.00;101945.41;2090655;28;20150;-68
2022/06/28 01:36:25;;;;;;;21.13;17.90;;;;;;;12.72;100.00;101946.31;2088365;28;20061;-68
2022/06/28 01:37:30;;;;;;;24.65;19.52;;;;;;;12.72;100.00;101938.25;2088467;28;20874;-67
2022/06/28 01:38:33;;;;;;;23.17;19.65;;;;;;;12.73;100.00;101942.69;2088811;28;20103;-67
2022/06/28 01:39:38;;;;;;;22.65;20.20;;;;;;;12.72;100.00;101945.41;2088328;28;20934;-67
2022/06/28 01:40:45;;;;;;;23.40;19.38;;;;;;;12.70;100.00;101939.19;2079717;28;20937;-68
2022/06/28 01:41:51;;;;;;;22.25;19.85;;;;;;;12.71;100.00;101941.84;2090801;28;20045;-66
2022/06/28 01:42:57;;;;;;;24.02;20.40;;;;;;;12.68;100.00;101939.19;2104826;28;20033;-66
2022/06/28 01:44:05;;;;;;;27.70;22.08;;;;;;;12.66;100.00;101940.16;2096714;28;20053;-67
2022/06/28 01:45:11;;;;;;;25.92;22.40;;;;;;;12.63;100.00;101935.69;2097595;28;20072;-67
2022/06/28 01:46:16;;;;;;;27.75;22.45;;;;;;;12.68;100.00;101943.69;2096779;28;20042;-67
2022/06/28 01:47:34;;;;;;;25.52;21.08;;;;;;;12.59;100.00;101936.66;2090711;28;20929;-66
2022/06/28 01:48:35;;;;;;;27.20;23.45;;;;;;;12.58;100.00;101940.28;2090651;28;20037;-66
2022/06/28 01:49:41;;;;;;;30.45;23.60;;;;;;;12.56;100.00;101940.28;2089045;28;20181;-66
2022/06/28 01:50:45;;;;;;;28.17;23.02;;;;;;;12.55;100.00;101943.00;2097273;28;20045;-67
2022/06/28 01:52:01;;;;;;;26.02;20.33;;;;;;;12.49;100.00;101943.97;2096545;28;20632;-65
2022/06/28 01:53:22;;;;;;;24.08;18.83;;;;;;;12.44;100.00;101940.47;2095911;28;20041;-64
2022/06/28 01:54:54;;;;;;;24.52;21.50;;;;;;;12.40;100.00;101949.50;2079280;28;20073;-67
2022/06/28 01:55:57;;;;;;;20.13;18.02;;;;;;;12.33;100.00;101939.75;2104549;28;20878;-67
2022/06/28 01:57:17;;;;;;;24.52;20.65;;;;;;;12.30;100.00;101954.09;2096137;28;20041;-67
2022/06/28 01:58:28;;;;;;;23.08;19.25;;;;;;;12.26;100.00;101951.44;2096522;28;20041;-66
2022/06/28 01:59:30;;;;;;;27.17;22.30;;;;;;;12.27;100.00;101954.13;2096495;28;20044;-67
2022/06/28 02:00:43;;;;;;;24.75;19.45;;;;;;;12.20;100.00;101955.09;2095830;28;20041;-67
2022/06/28 02:01:45;;;;;;;21.08;16.73;;;;;;;12.19;100.00;101950.66;2087684;28;20045;-67
2022/06/28 02:02:52;;;;;;;28.60;22.55;;;;;;;12.14;100.00;101955.22;2088368;28;20106;-67
2022/06/28 02:04:28;;;;;;;24.35;20.40;;;;;;;12.09;100.00;101959.75;2096564;28;20033;-66
2022/06/28 02:05:37;;;;;;;23.50;19.70;;;;;;;12.02;100.00;101957.16;2088897;28;20133;-67
2022/06/28 02:06:39;;;;;;;29.08;23.98;;;;;;;12.03;100.00;101950.84;2092848;28;20053;-67
2022/06/28 02:07:52;;;;;;;23.00;20.13;;;;;;;12.00;100.00;101952.69;2088298;28;20119;-67
2022/06/28 02:08:56;;;;;;;25.55;21.60;;;;;;;11.96;100.00;101945.59;2088983;28;20045;-67
2022/06/28 02:10:05;;;;;;;28.35;22.50;;;;;;;11.93;100.00;101945.63;2088723;28;20098;-66
2022/06/28 02:11:10;;;;;;;23.63;21.13;;;;;;;11.91;100.00;101944.75;2087741;28;20162;-66
2022/06/28 02:12:20;;;;;;;28.23;23.25;;;;;;;11.89;100.00;101942.06;2088753;28;20796;-67
2022/06/28 02:13:23;;;;;;;31.23;25.50;;;;;;;11.91;100.00;101939.38;2088046;28;20814;-67
2022/06/28 02:14:25;;;;;;;37.28;27.63;;;;;;;11.98;100.00;101947.34;2095909;28;21003;-68
2022/06/28 02:15:30;;;;;;;36.17;28.92;;;;;;;12.01;100.00;101946.44;2087772;28;20067;-67
2022/06/28 02:16:37;;;;;;;35.53;25.27;;;;;;;12.00;100.00;101950.00;2087926;28;20160;-68
2022/06/28 02:17:41;;;;;;;32.63;25.85;;;;;;;11.97;100.00;101950.03;2096780;28;20045;-67
2022/06/28 02:18:43;;;;;;;32.60;26.98;;;;;;;11.94;100.00;101944.72;2096102;28;20107;-67
2022/06/28 02:19:45;;;;;;;29.00;25.20;;;;;;;11.94;100.00;101944.72;2096383;28;20048;-67
2022/06/28 02:20:49;;;;;;;28.30;24.10;;;;;;;11.90;100.00;101946.56;2096391;28;20148;-68
2022/06/28 02:21:51;;;;;;;26.63;23.33;;;;;;;11.92;100.00;101941.19;2096160;28;21014;-68
2022/06/28 02:22:55;;;;;;;36.58;26.40;;;;;;;11.90;100.00;101943.88;2096107;28;20967;-68
2022/06/28 02:24:00;;;;;;;37.08;27.38;;;;;;;11.88;100.00;101942.97;2096473;28;20041;-68
2022/06/28 02:25:06;;;;;;;32.75;28.00;;;;;;;11.91;100.00;101947.44;2096348;28;20053;-67
2022/06/28 02:26:11;;;;;;;36.83;27.08;;;;;;;11.88;100.00;101948.34;2096683;28;20045;-67
2022/06/28 02:27:13;;;;;;;37.63;29.05;;;;;;;11.88;100.00;101944.75;2096152;28;21668;-67
2022/06/28 02:28:17;;;;;;;31.65;25.08;;;;;;;11.87;100.00;101951.03;2096293;28;20033;-66
2022/06/28 02:29:19;;;;;;;38.63;27.45;;;;;;;11.87;100.00;101948.38;2096065;28;20118;-67
2022/06/28 02:30:22;;;;;;;39.72;31.48;;;;;;;11.84;100.00;101941.22;2088319;28;20042;-67
2022/06/28 02:31:24;;;;;;;47.92;34.67;;;;;;;11.91;100.00;101945.63;2088005;28;20045;-67
2022/06/28 02:32:25;;;;;;;42.08;31.23;;;;;;;11.89;100.00;101949.22;2096395;28;20120;-67
2022/06/28 02:33:27;;;;;;;37.22;29.75;;;;;;;11.85;100.00;101948.38;2095883;28;20048;-67
2022/06/28 02:41:13;;;;;;;39.00;27.73;;;;;;;11.90;100.00;101953.66;2087419;28;19987;-67
2022/06/28 02:42:15;;;;;;;44.95;33.10;;;;;;;11.90;100.00;101959.03;2079177;28;20096;-67
2022/06/28 02:43:16;;;;;;;51.97;36.25;;;;;;;11.93;100.00;101954.56;2078452;28;20054;-67
2022/06/28 02:44:18;;;;;;;45.83;32.72;;;;;;;11.90;100.00;101949.25;2090055;28;20096;-66
2022/06/28 02:45:24;;;;;;;39.05;29.23;;;;;;;11.88;100.00;101950.13;2104170;28;20137;-67
2022/06/28 02:46:26;;;;;;;45.72;32.78;;;;;;;11.88;100.00;101958.16;2104157;28;20048;-67
2022/06/28 02:47:28;;;;;;;45.67;35.10;;;;;;;11.88;100.00;101959.09;2097067;28;20096;-67
2022/06/28 02:48:30;;;;;;;49.13;35.38;;;;;;;11.89;100.00;101951.91;2096726;28;20730;-67
2022/06/28 02:49:33;;;;;;;46.50;34.47;;;;;;;11.91;100.00;101966.22;2096711;28;20145;-67
2022/06/28 02:50:35;;;;;;;45.92;34.72;;;;;;;11.94;100.00;101966.19;2097080;28;20166;-69
2022/06/28 02:51:37;;;;;;;42.53;33.47;;;;;;;11.92;100.00;101952.78;2104172;28;20178;-68
2022/06/28 02:52:42;;;;;;;51.55;35.92;;;;;;;11.95;100.00;101955.44;2095682;28;20041;-67
2022/06/28 02:53:44;;;;;;;51.40;36.03;;;;;;;11.92;100.00;101960.84;2096341;28;20199;-67
2022/06/28 02:54:46;;;;;;;51.22;37.22;;;;;;;11.97;100.00;101953.63;2095897;28;20037;-68
2022/06/28 02:55:48;;;;;;;50.53;35.63;;;;;;;11.95;100.00;101967.97;2095689;28;28344;-68
2022/06/28 02:56:52;;;;;;;49.00;37.03;;;;;;;12.01;100.00;101957.16;2096105;28;20159;-68
2022/06/28 02:57:56;;;;;;;52.72;35.30;;;;;;;12.00;100.00;101955.38;2095923;28;21157;-68
2022/06/28 02:58:58;;;;;;;50.22;36.65;;;;;;;11.96;100.00;101953.66;2097040;28;21456;-67
2022/06/28 03:00:02;;;;;;;54.35;32.28;;;;;;;11.95;100.00;101954.53;2095555;28;20048;-68
2022/06/28 03:01:04;;;;;;;51.15;36.10;;;;;;;11.93;100.00;101953.66;2087759;28;20037;-67
2022/06/28 03:02:06;;;;;;;51.67;36.08;;;;;;;11.94;100.00;101950.97;2088049;28;20033;-68
2022/06/28 03:03:08;;;;;;;54.22;37.15;;;;;;;11.99;100.00;101949.13;2096425;28;20044;-67
2022/06/28 03:04:10;;;;;;;51.97;34.45;;;;;;;11.97;100.00;101947.34;2096940;28;20037;-67
2022/06/28 03:05:16;;;;;;;49.97;33.20;;;;;;;11.98;100.00;101951.81;2095549;28;20041;-68
2022/06/28 03:06:18;;;;;;;59.63;38.38;;;;;;;12.01;100.00;101957.16;2088378;28;20175;-68
2022/06/28 03:07:20;;;;;;;74.43;38.35;;;;;;;12.01;100.00;101957.16;2098589;28;20040;-68
2022/06/28 03:08:22;;;;;;;61.03;38.47;;;;;;;12.01;100.00;101958.03;2103965;28;20107;-67
2022/06/28 03:09:25;;;;;;;53.00;33.30;;;;;;;12.00;100.00;101955.38;2087605;28;20034;-68
2022/06/28 03:10:27;;;;;;;94.45;38.13;;;;;;;11.97;100.00;101950.03;2087367;28;34301;-68
2022/06/28 03:11:33;;;;;;;57.30;35.33;;;;;;;11.99;100.00;101958.97;2096366;28;20040;-68
2022/06/28 03:12:35;;;;;;;73.85;36.13;;;;;;;11.98;100.00;101955.38;2080320;28;20076;-68
2022/06/28 03:13:37;;;;;;;58.42;36.85;;;;;;;12.01;100.00;101951.78;2088723;28;20041;-67
2022/06/28 03:14:39;;;;;;;75.05;36.67;;;;;;;11.99;100.00;101958.97;2104261;28;20129;-68
2022/06/28 03:15:42;;;;;;;117.45;36.05;;;;;;;11.99;100.00;101962.53;2096178;28;20940;-67
2022/06/28 03:16:44;;;;;;;63.22;35.63;;;;;;;12.01;100.00;101959.84;2087623;28;20904;-68
2022/06/28 03:17:46;;;;;;;65.65;34.38;;;;;;;11.97;100.00;101964.38;2087577;28;20946;-68
2022/06/28 03:18:48;;;;;;;96.88;36.58;;;;;;;12.00;100.00;101979.53;2095804;28;20242;-67
2022/06/28 03:19:53;;;;;;;58.75;37.08;;;;;;;12.02;100.00;101970.56;2095625;28;22865;-68
2022/06/28 03:20:55;;;;;;;59.38;36.60;;;;;;;12.00;100.00;101966.09;2086388;28;27252;-67
2022/06/28 03:21:57;;;;;;;65.80;36.67;;;;;;;11.97;100.00;101968.81;2095949;28;20106;-68
2022/06/28 03:22:59;;;;;;;74.70;36.33;;;;;;;11.98;100.00;101966.13;2096603;28;21071;-68
2022/06/28 03:24:02;;;;;;;69.32;35.80;;;;;;;11.97;100.00;101969.72;2086317;28;20088;-67
2022/06/28 03:25:06;;;;;;;60.45;36.42;;;;;;;12.00;100.00;101974.16;2087872;28;20999;-67
2022/06/28 03:26:08;;;;;;;66.65;36.88;;;;;;;12.00;100.00;101968.78;2096034;28;20041;-67
2022/06/28 03:27:10;;;;;;;64.75;36.72;;;;;;;11.98;100.00;101974.19;2095783;28;20083;-67
2022/06/28 03:28:12;;;;;;;73.07;34.08;;;;;;;12.00;100.00;101979.53;2095717;28;20033;-67
2022/06/28 03:29:14;;;;;;;81.30;34.17;;;;;;;11.96;100.00;101983.16;2095714;28;20049;-67
2022/06/28 03:30:16;;;;;;;87.60;38.13;;;;;;;11.95;100.00;101994.78;2104197;28;20033;-68
2022/06/28 03:31:22;;;;;;;55.60;35.65;;;;;;;11.96;100.00;101986.72;2095713;28;20049;-68
2022/06/28 03:32:25;;;;;;;69.63;34.97;;;;;;;11.96;100.00;101991.22;2088301;28;20041;-68
2022/06/28 03:33:27;;;;;;;71.50;37.05;;;;;;;11.95;100.00;101986.75;2087694;28;20050;-66
2022/06/28 03:34:32;;;;;;;57.78;37.28;;;;;;;11.96;100.00;101983.16;2087631;28;20045;-67
2022/06/28 03:35:36;;;;;;;55.92;35.17;;;;;;;11.95;100.00;101979.59;2095945;28;20857;-67
2022/06/28 03:36:40;;;;;;;57.63;37.05;;;;;;;12.00;100.00;101987.59;2095227;28;20073;-65
2022/06/28 03:38:12;;;;;;;45.70;34.75;;;;;;;12.02;100.00;101985.75;2079570;28;20052;-67
2022/06/28 03:39:43;;;;;;;64.90;37.85;;;;;;;12.02;100.00;101978.63;2070194;28;20051;-67
2022/06/28 03:40:45;;;;;;;51.08;34.95;;;;;;;12.02;100.00;101975.03;2062538;28;20027;-67
2022/06/28 03:41:47;;;;;;;60.35;37.22;;;;;;;12.02;100.00;101983.09;2092563;28;20111;-67
2022/06/28 03:42:49;;;;;;;56.42;37.35;;;;;;;12.01;100.00;101979.50;2095890;28;21246;-67
2022/06/28 03:43:52;;;;;;;44.88;34.88;;;;;;;12.03;100.00;101984.88;2103768;28;20095;-67
2022/06/28 03:44:54;;;;;;;46.85;36.25;;;;;;;12.05;100.00;101982.16;2104002;28;20053;-67
2022/06/28 03:45:56;;;;;;;47.47;35.97;;;;;;;12.06;100.00;101990.22;2095484;28;20030;-67
2022/06/28 03:47:14;;;;;;;54.00;36.05;;;;;;;12.04;100.00;101992.00;2095731;28;20045;-67
2022/06/28 03:48:34;;;;;;;47.47;34.58;;;;;;;12.03;100.00;101987.56;2096428;28;20955;-67
2022/06/28 03:50:02;;;;;;;48.03;34.03;;;;;;;12.03;100.00;101983.06;2093498;28;20049;-65
2022/06/28 03:51:24;;;;;;;44.10;34.80;;;;;;;12.01;100.00;101992.94;2095240;28;20056;-66
2022/06/28 03:52:46;;;;;;;41.38;32.13;;;;;;;12.07;100.00;101999.13;2095590;28;20108;-67
2022/06/28 03:54:06;;;;;;;44.58;32.95;;;;;;;12.07;100.00;101994.66;2096114;28;20168;-67
2022/06/28 03:55:13;;;;;;;41.83;34.17;;;;;;;12.08;100.00;101991.06;2104410;28;20945;-67
2022/06/28 03:56:22;;;;;;;47.92;34.63;;;;;;;12.07;100.00;101994.66;2095423;28;20041;-67
2022/06/28 03:57:28;;;;;;;39.08;34.28;;;;;;;12.14;100.00;102000.84;2088076;28;20041;-68
2022/06/28 03:58:30;;;;;;;43.70;31.67;;;;;;;12.16;100.00;101993.66;2087069;28;20778;-67
2022/06/28 03:59:33;;;;;;;46.80;35.20;;;;;;;12.16;100.00;101999.03;2095933;28;20040;-67
2022/06/28 04:00:34;;;;;;;40.60;34.78;;;;;;;12.19;100.00;102007.06;2095680;28;20114;-67
2022/06/28 04:01:37;;;;;;;44.85;33.20;;;;;;;12.21;100.00;101997.19;2087249;28;20048;-67
2022/06/28 04:02:40;;;;;;;43.70;34.58;;;;;;;12.20;100.00;102007.03;2095843;28;20049;-67
2022/06/28 04:03:49;;;;;;;37.95;31.70;;;;;;;12.22;100.00;102005.22;2102997;28;20094;-67
2022/06/28 04:04:51;;;;;;;41.25;33.38;;;;;;;12.27;100.00;102001.56;2096405;28;20144;-67
2022/06/28 04:05:52;;;;;;;36.92;32.20;;;;;;;12.30;100.00;102006.91;2103513;28;20087;-67
2022/06/28 04:06:55;;;;;;;40.28;32.85;;;;;;;12.31;100.00;102006.91;2095475;28;20052;-67
2022/06/28 04:07:57;;;;;;;35.67;31.60;;;;;;;12.36;100.00;102012.19;2096105;28;20130;-67
2022/06/28 04:09:19;;;;;;;35.58;31.55;;;;;;;12.35;100.00;102005.94;2095741;28;20941;-66
2022/06/28 04:10:27;;;;;;;34.97;30.83;;;;;;;12.40;100.00;102009.47;2087136;28;21410;-67
2022/06/28 04:11:35;;;;;;;33.65;30.20;;;;;;;12.45;100.00;102011.19;2088570;28;20107;-67
2022/06/28 04:12:37;;;;;;;33.53;29.85;;;;;;;12.47;100.00;102012.03;2087183;28;20050;-67
2022/06/28 04:13:57;;;;;;;37.97;31.45;;;;;;;12.57;100.00;102006.53;2081389;28;20041;-67
2022/06/28 04:14:58;;;;;;;32.85;28.58;;;;;;;12.65;100.00;102005.53;2079249;28;20100;-67
2022/06/28 04:16:00;;;;;;;33.33;29.70;;;;;;;12.73;100.00;102012.56;2078893;28;20101;-67
2022/06/28 04:17:02;;;;;;;35.13;31.02;;;;;;;12.97;100.00;102011.31;2087186;28;20167;-67
2022/06/28 04:18:23;;;;;;;31.73;28.48;;;;;;;13.36;100.00;102011.59;2087535;28;20037;-66
2022/06/28 04:19:43;;;;;;;30.55;27.23;;;;;;;13.74;100.00;102009.13;2095805;28;20068;-66
2022/06/28 04:20:45;;;;;;;26.70;24.05;;;;;;;13.89;100.00;102013.31;2104009;28;20122;-67
2022/06/28 04:21:48;;;;;;;24.88;22.38;;;;;;;14.20;100.00;102013.59;2112112;28;20820;-67
2022/06/28 04:22:57;;;;;;;23.42;21.08;;;;;;;14.70;99.48;102010.75;2111778;28;20932;-67
2022/06/28 04:23:59;;;;;;;21.48;19.33;;;;;;;15.00;97.22;102014.56;2111514;27;20033;-67
2022/06/28 04:25:01;;;;;;;19.90;18.00;;;;;;;15.38;95.11;102009.09;2112154;28;20075;-67
2022/06/28 04:26:12;;;;;;;18.65;16.90;;;;;;;15.70;93.02;102013.63;2103874;28;20048;-67
2022/06/28 04:27:16;;;;;;;16.30;14.75;;;;;;;16.15;91.85;102015.13;2095838;28;20038;-67
2022/06/28 04:28:18;;;;;;;16.83;15.02;;;;;;;16.37;87.38;102016.28;2095612;28;22597;-66
2022/06/28 04:29:35;;;;;;;15.48;13.95;;;;;;;16.53;82.31;102016.69;2095247;28;20041;-66
2022/06/28 04:30:41;;;;;;;14.73;13.25;;;;;;;16.56;82.38;102023.81;2087872;28;20102;-67
2022/06/28 04:31:45;;;;;;;14.57;13.07;;;;;;;16.54;82.46;102018.44;2087085;28;20096;-67
2022/06/28 04:32:50;;;;;;;13.50;12.20;;;;;;;16.78;82.17;102027.63;2087445;28;20045;-67
2022/06/28 04:33:55;;;;;;;14.00;12.60;;;;;;;17.19;81.25;102016.44;2087931;28;20045;-68
2022/06/28 04:35:01;;;;;;;13.55;12.18;;;;;;;17.34;77.30;102018.63;2088458;28;20042;-68
2022/06/28 04:36:03;;;;;;;12.25;11.13;;;;;;;17.71;79.73;102019.16;2096505;28;20037;-68
2022/06/28 04:37:07;;;;;;;13.40;12.15;;;;;;;17.86;76.07;102018.66;2088861;28;20104;-68
2022/06/28 04:38:16;;;;;;;12.68;11.48;;;;;;;18.26;76.94;102022.59;2089516;28;20077;-67
2022/06/28 04:39:31;;;;;;;12.05;10.85;;;;;;;18.82;75.23;102015.91;2091965;28;20138;-68
2022/06/28 04:40:48;;;;;;;11.40;10.38;;;;;;;19.28;73.59;102018.56;2092702;28;20053;-67
2022/06/28 04:42:10;;;;;;;11.88;10.68;;;;;;;19.72;69.84;102013.06;2096651;28;20100;-68
2022/06/28 04:43:13;;;;;;;11.38;10.13;;;;;;;19.99;67.45;102018.22;2088445;28;20127;-68
2022/06/28 04:44:14;;;;;;;10.68;9.77;;;;;;;20.06;67.22;102017.00;2097157;28;20905;-68
2022/06/28 04:45:22;;;;;;;11.88;10.77;;;;;;;20.45;65.78;102012.50;2105107;28;20076;-68
2022/06/28 04:46:38;;;;;;;11.23;10.13;;;;;;;20.46;64.21;102012.44;2096944;28;20134;-68
2022/06/28 04:47:47;;;;;;;11.32;10.00;;;;;;;21.26;64.71;102018.56;2097996;28;20041;-68
2022/06/28 04:48:49;;;;;;;10.07;9.15;;;;;;;20.49;62.84;102020.44;2096932;28;20041;-68
2022/06/28 04:49:56;;;;;;;11.32;10.20;;;;;;;20.95;61.99;102015.53;2097465;28;20045;-68
2022/06/28 04:51:10;;;;;;;11.32;9.43;;;;;;;21.62;60.72;102017.66;2105376;28;20072;-68
2022/06/28 04:52:17;;;;;;;11.15;10.07;;;;;;;21.52;59.07;102020.00;2103615;28;20040;-68
2022/06/28 04:53:27;;;;;;;11.18;10.15;;;;;;;21.01;61.05;102021.63;2096931;28;20079;-66
2022/06/28 04:54:31;;;;;;;10.63;9.63;;;;;;;21.57;62.29;102017.91;2088600;28;20045;-68
2022/06/28 04:55:49;;;;;;;11.05;9.95;;;;;;;21.01;60.57;102016.19;2090986;28;20743;-68
2022/06/28 04:56:52;;;;;;;9.80;8.90;;;;;;;21.66;60.00;102021.97;2089066;28;20302;-68
2022/06/28 04:57:56;;;;;;;10.75;9.75;;;;;;;21.96;60.34;102018.59;2088967;28;20914;-68
2022/06/28 04:58:58;;;;;;;10.65;9.60;;;;;;;21.89;59.98;102016.22;2096558;28;20041;-69
2022/06/28 05:00:00;;;;;;;10.75;9.65;;;;;;;22.01;59.74;102017.38;2104999;28;20047;-69
2022/06/28 05:01:11;;;;;;;10.00;9.10;;;;;;;22.74;56.80;102019.75;2096874;28;20195;-69
2022/06/28 05:02:17;;;;;;;9.38;8.57;;;;;;;23.19;55.47;102014.47;2089021;28;20048;-68
2022/06/28 05:03:19;;;;;;;10.40;9.40;;;;;;;22.87;54.23;102019.94;2104430;28;20091;-69
2022/06/28 05:04:36;;;;;;;9.90;9.00;;;;;;;22.98;55.90;102016.56;2109783;28;20103;-69
2022/06/28 05:05:47;;;;;;;10.25;9.35;;;;;;;22.94;54.62;102025.91;2096882;28;20839;-69